createdAt,value
2022-09-26T00:01:10.762Z,100480.44
2022-09-26T00:04:23.031Z,100479.47
2022-09-26T00:07:25.395Z,100472.28
2022-09-26T00:10:26.949Z,100470.44
2022-09-26T00:13:30.324Z,100472.28
2022-09-26T00:16:32.015Z,100462.47
2022-09-26T00:19:33.587Z,100451.84
2022-09-26T00:22:35.179Z,100445.59
2022-09-26T00:25:36.691Z,100451.75
2022-09-26T00:28:38.508Z,100450.78
2022-09-26T00:31:44.231Z,100447.31
2022-09-26T00:34:45.752Z,100436.69
2022-09-26T00:37:47.271Z,100434.03
2022-09-26T00:40:50.478Z,100429.53
2022-09-26T00:43:54.345Z,100426.78
2022-09-26T00:46:55.896Z,100417.03
2022-09-26T00:50:06.194Z,100416.91
2022-09-26T00:53:15.014Z,100411.47
2022-09-26T00:56:35.306Z,100407.88
2022-09-26T00:59:41.860Z,100398.97
2022-09-26T01:02:44.910Z,100398.09
2022-09-26T01:05:47.350Z,100385.59
2022-09-26T01:08:57.432Z,100374.03
2022-09-26T01:12:02.144Z,100371.25
2022-09-26T01:15:06.357Z,100364.22
2022-09-26T01:18:07.924Z,100357.03
2022-09-26T01:21:27.625Z,100359.44
2022-09-26T01:24:50.142Z,100349.66
2022-09-26T01:28:22.793Z,100343.50
2022-09-26T01:31:30.452Z,100342.56
2022-09-26T01:34:57.338Z,100344.34
2022-09-26T01:38:01.868Z,100341.59
2022-09-26T01:41:12.922Z,100337.13
2022-09-26T01:44:39.018Z,100334.38
2022-09-26T01:47:44.318Z,100325.41
2022-09-26T01:50:51.241Z,100322.69
2022-09-26T01:54:03.077Z,100320.88
2022-09-26T01:57:08.965Z,100307.66
2022-09-26T02:00:12.730Z,100303.22
2022-09-26T02:03:19.416Z,100286.31
2022-09-26T02:06:58.073Z,100294.19
2022-09-26T02:10:09.770Z,100278.22
2022-09-26T02:13:19.515Z,100273.78
2022-09-26T02:16:51.810Z,100267.38
2022-09-26T02:19:59.092Z,100267.16
2022-09-26T02:23:03.988Z,100251.97
2022-09-26T02:26:05.943Z,100252.69
2022-09-26T02:29:08.615Z,100248.00
2022-09-26T02:32:19.090Z,100246.19
2022-09-26T02:35:39.118Z,100239.06
2022-09-26T02:38:40.680Z,100230.03
2022-09-26T02:42:11.353Z,100224.59
2022-09-26T02:45:44.328Z,100224.50
2022-09-26T02:49:16.877Z,100216.38
2022-09-26T02:52:21.940Z,100198.63
2022-09-26T02:55:49.549Z,100197.69
2022-09-26T02:59:09.237Z,100198.28
2022-09-26T03:02:19.717Z,100191.03
2022-09-26T03:05:25.195Z,100184.78
2022-09-26T03:08:32.073Z,100179.34
2022-09-26T03:11:35.994Z,100171.25
2022-09-26T03:14:41.746Z,100174.78
2022-09-26T03:17:49.843Z,100163.16
2022-09-26T03:20:54.203Z,100166.69
2022-09-26T03:23:58.079Z,100165.81
2022-09-26T03:27:00.637Z,100153.25
2022-09-26T03:30:02.228Z,100142.63
2022-09-26T03:33:03.956Z,100154.09
2022-09-26T03:36:09.438Z,100146.13
2022-09-26T03:39:11.336Z,100147.09
2022-09-26T03:42:14.271Z,100138.16
2022-09-26T03:45:15.877Z,100131.97
2022-09-26T03:48:17.464Z,100122.06
2022-09-26T03:51:19.495Z,100126.44
2022-09-26T03:54:21.056Z,100116.66
2022-09-26T03:57:22.804Z,100111.34
2022-09-26T04:00:24.893Z,100106.88
2022-09-26T04:03:27.541Z,100104.94
2022-09-26T04:06:29.089Z,100093.22
2022-09-26T04:09:31.130Z,100091.28
2022-09-26T04:12:32.641Z,100085.97
2022-09-26T04:15:34.154Z,100074.38
2022-09-26T04:18:36.366Z,100074.25
2022-09-26T04:21:40.145Z,100070.63
2022-09-26T04:24:41.725Z,100066.03
2022-09-26T04:27:43.245Z,100063.38
2022-09-26T04:30:44.960Z,100058.91
2022-09-26T04:33:46.493Z,100049.97
2022-09-26T04:36:48.502Z,100052.53
2022-09-26T04:39:50.040Z,100046.13
2022-09-26T04:42:51.582Z,100039.09
2022-09-26T04:45:53.171Z,100038.00
2022-09-26T04:48:56.996Z,100035.22
2022-09-26T04:51:58.533Z,100031.59
2022-09-26T04:55:00.045Z,100032.44
2022-09-26T04:58:02.543Z,100025.31
2022-09-26T05:01:06.866Z,100016.38
2022-09-26T05:04:10.110Z,100017.09
2022-09-26T05:07:11.840Z,100017.09
2022-09-26T05:10:13.375Z,100018.78
2022-09-26T05:13:14.893Z,100015.88
2022-09-26T05:16:17.194Z,100016.13
2022-09-26T05:19:18.958Z,100012.53
2022-09-26T05:22:20.503Z,100005.38
2022-09-26T05:25:40.713Z,99991.22
2022-09-26T05:28:42.262Z,99993.91
2022-09-26T05:31:43.910Z,99997.50
2022-09-26T05:34:46.510Z,99995.00
2022-09-26T05:37:48.036Z,99996.06
2022-09-26T05:40:56.670Z,99990.13
2022-09-26T05:43:58.965Z,99992.94
2022-09-26T05:47:00.611Z,99989.41
2022-09-26T05:50:10.044Z,99983.47
2022-09-26T05:53:11.898Z,99984.47
2022-09-26T05:56:18.791Z,99978.63
2022-09-26T05:59:21.089Z,99979.50
2022-09-26T06:02:22.681Z,99981.06
2022-09-26T06:05:25.482Z,99969.69
2022-09-26T06:08:28.265Z,99961.72
2022-09-26T06:11:31.147Z,99966.19
2022-09-26T06:14:32.969Z,99957.47
2022-09-26T06:17:34.484Z,99948.66
2022-09-26T06:20:36.105Z,99945.03
2022-09-26T06:23:38.893Z,99939.72
2022-09-26T06:26:40.448Z,99935.22
2022-09-26T06:29:42.030Z,99930.63
2022-09-26T06:32:45.477Z,99920.00
2022-09-26T06:35:47.401Z,99911.88
2022-09-26T06:38:49.725Z,99912.59
2022-09-26T06:41:51.338Z,99908.97
2022-09-26T06:44:53.058Z,99907.16
2022-09-26T06:47:54.806Z,99905.31
2022-09-26T06:51:00.193Z,99899.91
2022-09-26T06:54:01.807Z,99907.88
2022-09-26T06:57:03.472Z,99905.09
2022-09-26T07:00:05.415Z,99901.34
2022-09-26T07:03:08.338Z,99888.03
2022-09-26T07:06:09.913Z,99882.59
2022-09-26T07:09:12.658Z,99886.06
2022-09-26T07:12:15.991Z,99882.59
2022-09-26T07:15:19.610Z,99872.78
2022-09-26T07:18:21.147Z,99875.44
2022-09-26T07:21:22.955Z,99879.81
2022-09-26T07:24:24.588Z,99865.63
2022-09-26T07:27:26.443Z,99867.34
2022-09-26T07:30:28.528Z,99861.03
2022-09-26T07:33:30.241Z,99860.06
2022-09-26T07:36:31.965Z,99850.13
2022-09-26T07:39:33.890Z,99852.66
2022-09-26T07:42:38.471Z,99845.28
2022-09-26T07:45:58.663Z,99841.31
2022-09-26T07:49:18.783Z,99840.06
2022-09-26T07:52:22.574Z,99837.88
2022-09-26T07:55:28.325Z,99837.38
2022-09-26T07:58:29.833Z,99827.31
2022-09-26T08:01:32.168Z,99827.06
2022-09-26T08:04:33.827Z,99827.75
2022-09-26T08:07:35.632Z,99831.03
2022-09-26T08:10:37.324Z,99826.41
2022-09-26T08:13:38.881Z,99822.66
2022-09-26T08:16:41.750Z,99832.06
2022-09-26T08:19:43.601Z,99826.63
2022-09-26T08:22:45.125Z,99824.81
2022-09-26T08:25:46.632Z,99823.81
2022-09-26T08:28:48.149Z,99818.38
2022-09-26T08:31:50.334Z,99816.53
2022-09-26T08:34:52.626Z,99826.22
2022-09-26T08:37:54.181Z,99826.09
2022-09-26T08:41:32.491Z,99819.81
2022-09-26T08:44:55.980Z,99816.28
2022-09-26T08:48:14.789Z,99805.63
2022-09-26T08:51:40.689Z,99803.81
2022-09-26T08:54:45.130Z,99796.94
2022-09-26T08:57:52.739Z,99800.56
2022-09-26T09:01:05.177Z,99785.41
2022-09-26T09:04:16.655Z,99791.59
2022-09-26T09:07:23.649Z,99783.47
2022-09-26T09:10:44.849Z,99786.00
2022-09-26T09:14:08.244Z,99779.59
2022-09-26T09:17:32.212Z,99779.31
2022-09-26T09:20:45.998Z,99778.19
2022-09-26T09:23:53.289Z,99767.53
2022-09-26T09:30:31.299Z,99773.47
2022-09-26T09:33:39.358Z,99771.38
2022-09-26T09:36:45.005Z,99766.88
2022-09-26T09:39:49.129Z,99760.44
2022-09-26T09:43:01.649Z,99761.19
2022-09-26T09:46:29.326Z,99759.31
2022-09-26T09:49:31.040Z,99753.19
2022-09-26T09:52:57.317Z,99755.56
2022-09-26T09:56:11.673Z,99739.56
2022-09-26T09:59:58.150Z,99738.75
2022-09-26T10:03:37.877Z,99733.78
2022-09-26T10:06:46.648Z,99720.88
2022-09-26T10:09:51.929Z,99709.50
2022-09-26T10:12:54.555Z,99713.03
2022-09-26T10:16:01.729Z,99710.09
2022-09-26T10:19:04.304Z,99689.50
2022-09-26T10:22:15.362Z,99684.88
2022-09-26T10:25:21.561Z,99681.34
2022-09-26T10:28:30.136Z,99668.63
2022-09-26T10:31:42.947Z,99664.00
2022-09-26T10:35:03.960Z,99671.63
2022-09-26T10:38:20.895Z,99666.84
2022-09-26T10:41:25.177Z,99658.78
2022-09-26T10:44:35.153Z,99658.22
2022-09-26T10:47:37.742Z,99656.38
2022-09-26T10:50:52.097Z,99637.13
2022-09-26T10:54:04.405Z,99636.63
2022-09-26T10:57:09.536Z,99628.34
2022-09-26T11:00:33.473Z,99617.81
2022-09-26T11:03:44.340Z,99624.13
2022-09-26T11:06:46.016Z,99629.19
2022-09-26T11:09:47.868Z,99614.59
2022-09-26T11:13:03.446Z,99621.91
2022-09-26T11:16:05.026Z,99624.84
2022-09-26T11:19:17.281Z,99614.28
2022-09-26T11:22:26.568Z,99616.25
2022-09-26T11:25:32.873Z,99603.06
2022-09-26T11:28:45.004Z,99603.31
2022-09-26T11:31:46.944Z,99595.47
2022-09-26T11:34:48.490Z,99602.47
2022-09-26T11:38:27.076Z,99606.97
2022-09-26T11:41:56.283Z,99600.09
2022-09-26T11:45:00.540Z,99590.41
2022-09-26T11:48:23.516Z,99592.09
2022-09-26T11:51:59.126Z,99592.22
2022-09-26T11:55:24.316Z,99595.03
2022-09-26T11:58:51.408Z,99589.72
2022-09-26T12:02:15.787Z,99586.34
2022-09-26T12:05:27.404Z,99596.44
2022-09-26T12:08:30.212Z,99597.69
2022-09-26T12:11:58.107Z,99584.75
2022-09-26T12:15:08.840Z,99575.38
2022-09-26T12:18:13.257Z,99577.19
2022-09-26T12:21:23.549Z,99576.50
2022-09-26T12:24:40.223Z,99564.16
2022-09-26T12:27:49.933Z,99558.25
2022-09-26T12:31:01.486Z,99563.00
2022-09-26T12:34:13.795Z,99551.78
2022-09-26T12:37:46.453Z,99548.53
2022-09-26T12:41:02.344Z,99542.78
2022-09-26T12:44:31.333Z,99535.91
2022-09-26T12:47:48.959Z,99539.56
2022-09-26T12:51:09.153Z,99536.91
2022-09-26T12:54:35.777Z,99537.72
2022-09-26T12:57:58.509Z,99522.03
2022-09-26T13:01:24.787Z,99525.81
2022-09-26T13:04:48.033Z,99520.78
2022-09-26T13:08:11.043Z,99497.75
2022-09-26T13:11:32.390Z,99506.06
2022-09-26T13:15:06.725Z,99498.44
2022-09-26T13:18:15.581Z,99503.09
2022-09-26T13:21:28.549Z,99501.69
2022-09-26T13:25:02.806Z,99493.84
2022-09-26T13:28:17.907Z,99480.66
2022-09-26T13:31:32.479Z,99502.94
2022-09-26T13:34:40.944Z,99484.56
2022-09-26T13:37:42.522Z,99482.19
2022-09-26T13:40:57.260Z,99465.50
2022-09-26T13:44:06.310Z,99472.50
2022-09-26T13:47:35.294Z,99474.34
2022-09-26T13:50:55.647Z,99468.44
2022-09-26T13:54:21.439Z,99460.44
2022-09-26T13:57:31.822Z,99449.94
2022-09-26T14:00:48.928Z,99443.94
2022-09-26T14:04:17.856Z,99445.47
2022-09-26T14:07:44.395Z,99451.63
2022-09-26T14:10:53.909Z,99433.69
2022-09-26T14:14:18.096Z,99439.84
2022-09-26T14:17:41.478Z,99424.72
2022-09-26T14:20:55.092Z,99421.63
2022-09-26T14:24:25.932Z,99426.41
2022-09-26T14:27:36.933Z,99416.72
2022-09-26T14:30:38.546Z,99419.66
2022-09-26T14:33:40.563Z,99410.13
2022-09-26T14:36:44.299Z,99397.06
2022-09-26T14:39:46.555Z,99397.91
2022-09-26T14:42:55.236Z,99394.56
2022-09-26T14:46:05.537Z,99393.88
2022-09-26T14:49:16.706Z,99393.00
2022-09-26T14:52:20.527Z,99389.66
2022-09-26T14:55:22.282Z,99381.50
2022-09-26T14:58:50.731Z,99373.25
2022-09-26T15:02:15.351Z,99367.09
2022-09-26T15:05:23.985Z,99356.59
2022-09-26T15:08:28.946Z,99361.91
2022-09-26T15:11:44.129Z,99361.91
2022-09-26T15:15:20.057Z,99355.75
2022-09-26T15:18:27.390Z,99356.69
2022-09-26T15:21:50.296Z,99356.69
2022-09-26T15:24:55.852Z,99353.22
2022-09-26T15:27:58.580Z,99340.72
2022-09-26T15:31:21.873Z,99339.59
2022-09-26T15:34:31.996Z,99340.44
2022-09-26T15:37:36.140Z,99334.16
2022-09-26T15:40:37.851Z,99332.34
2022-09-26T15:43:39.484Z,99335.81
2022-09-26T15:46:41.663Z,99325.19
2022-09-26T15:49:43.428Z,99326.19
2022-09-26T15:52:55.288Z,99315.66
2022-09-26T15:56:05.760Z,99312.16
2022-09-26T15:59:17.853Z,99306.84
2022-09-26T16:02:23.785Z,99293.66
2022-09-26T16:05:27.095Z,99300.66
2022-09-26T16:08:34.431Z,99296.19
2022-09-26T16:11:47.676Z,99289.16
2022-09-26T16:15:03.010Z,99290.00
2022-09-26T16:18:04.701Z,99279.66
2022-09-26T16:21:23.186Z,99281.19
2022-09-26T16:24:36.296Z,99283.00
2022-09-26T16:27:37.853Z,99280.22
2022-09-26T16:30:45.791Z,99282.72
2022-09-26T16:33:52.273Z,99271.22
2022-09-26T16:36:54.317Z,99264.94
2022-09-26T16:39:59.102Z,99264.94
2022-09-26T16:43:03.504Z,99258.75
2022-09-26T16:46:07.754Z,99255.25
2022-09-26T16:49:29.505Z,99254.28
2022-09-26T16:52:36.413Z,99259.72
2022-09-26T16:55:38.129Z,99255.25
2022-09-26T16:58:46.777Z,99250.78
2022-09-26T17:01:55.683Z,99243.63
2022-09-26T17:04:57.339Z,99244.59
2022-09-26T17:07:58.933Z,99244.59
2022-09-26T17:11:02.593Z,99257.91
2022-09-26T17:14:04.441Z,99250.94
2022-09-26T17:17:10.789Z,99252.59
2022-09-26T17:20:14.508Z,99250.78
2022-09-26T17:23:38.760Z,99252.59
2022-09-26T17:26:38.811Z,99249.06
2022-09-26T17:29:44.521Z,99246.84
2022-09-26T17:32:52.421Z,99244.69
2022-09-26T17:35:54.317Z,99236.00
2022-09-26T17:39:00.205Z,99235.31
2022-09-26T17:42:03.477Z,99234.63
2022-09-26T17:45:06.237Z,99230.28
2022-09-26T17:48:14.865Z,99228.59
2022-09-26T17:51:16.461Z,99227.75
2022-09-26T17:54:20.436Z,99223.41
2022-09-26T17:57:25.634Z,99221.59
2022-09-26T18:00:32.259Z,99229.56
2022-09-26T18:03:36.451Z,99222.72
2022-09-26T18:06:38.358Z,99221.88
2022-09-26T18:09:41.036Z,99216.25
2022-09-26T18:12:44.574Z,99217.78
2022-09-26T18:15:46.137Z,99217.94
2022-09-26T18:18:48.083Z,99220.31
2022-09-26T18:21:54.582Z,99203.19
2022-09-26T18:25:04.654Z,99205.84
2022-09-26T18:28:11.087Z,99205.84
2022-09-26T18:31:12.915Z,99202.22
2022-09-26T18:34:19.911Z,99208.94
2022-09-26T18:37:21.549Z,99202.75
2022-09-26T18:40:24.899Z,99207.09
2022-09-26T18:43:37.767Z,99205.41
2022-09-26T18:46:44.685Z,99202.75
2022-09-26T18:49:47.040Z,99206.91
2022-09-26T18:52:48.993Z,99197.50
2022-09-26T18:56:09.461Z,99206.16
2022-09-26T18:59:11.281Z,99199.16
2022-09-26T19:02:23.297Z,99197.63
2022-09-26T19:05:25.753Z,99203.09
2022-09-26T19:08:28.867Z,99200.44
2022-09-26T19:11:35.250Z,99190.75
2022-09-26T19:14:36.892Z,99182.06
2022-09-26T19:17:38.727Z,99186.72
2022-09-26T19:20:40.840Z,99193.03
2022-09-26T19:23:42.750Z,99190.34
2022-09-26T19:26:44.389Z,99178.16
2022-09-26T19:30:04.747Z,99182.66
2022-09-26T19:33:06.388Z,99171.03
2022-09-26T19:36:10.403Z,99165.97
2022-09-26T19:39:15.870Z,99168.78
2022-09-26T19:42:18.377Z,99174.13
2022-09-26T19:45:20.336Z,99164.31
2022-09-26T19:48:23.336Z,99167.97
2022-09-26T19:51:25.082Z,99170.34
2022-09-26T19:54:27.104Z,99168.19
2022-09-26T19:57:28.654Z,99169.03
2022-09-26T20:00:31.185Z,99166.38
2022-09-26T20:03:39.884Z,99174.09
2022-09-26T20:06:41.621Z,99167.78
2022-09-26T20:09:43.491Z,99170.13
2022-09-26T20:12:46.432Z,99168.19
2022-09-26T20:15:48.593Z,99161.00
2022-09-26T20:18:51.699Z,99159.19
2022-09-26T20:21:53.297Z,99160.19
2022-09-26T20:24:55.788Z,99153.84
2022-09-26T20:27:58.736Z,99146.97
2022-09-26T20:31:00.499Z,99145.16
2022-09-26T20:34:02.121Z,99137.84
2022-09-26T20:37:03.689Z,99147.53
2022-09-26T20:40:27.184Z,99149.38
2022-09-26T20:43:36.061Z,99138.53
2022-09-26T20:46:43.275Z,99140.38
2022-09-26T20:49:59.292Z,99129.19
2022-09-26T20:53:01.145Z,99119.06
2022-09-26T20:56:03.936Z,99118.63
2022-09-26T20:59:06.695Z,99111.31
2022-09-26T21:02:37.138Z,99117.31
2022-09-26T21:05:39.272Z,99123.34
2022-09-26T21:08:41.370Z,99116.19
2022-09-26T21:11:43.152Z,99113.34
2022-09-26T21:14:44.888Z,99109.03
2022-09-26T21:17:47.418Z,99107.22
2022-09-26T21:20:49.326Z,99107.72
2022-09-26T21:23:51.804Z,99110.09
2022-09-26T21:26:53.368Z,99112.09
2022-09-26T21:29:54.924Z,99111.25
2022-09-26T21:32:58.873Z,99107.44
2022-09-26T21:36:00.577Z,99114.47
2022-09-26T21:39:02.381Z,99105.16
2022-09-26T21:42:05.373Z,99101.50
2022-09-26T21:45:09.924Z,99101.81
2022-09-26T21:48:13.441Z,99101.81
2022-09-26T21:51:15.350Z,99102.31
2022-09-26T21:54:25.002Z,99095.03
2022-09-26T21:57:30.423Z,99092.22
2022-09-26T22:00:31.992Z,99090.53
2022-09-26T22:03:33.788Z,99089.72
2022-09-26T22:06:35.346Z,99086.88
2022-09-26T22:09:36.925Z,99085.94
2022-09-26T22:12:38.443Z,99085.94
2022-09-26T22:15:40.011Z,99075.78
2022-09-26T22:18:41.684Z,99072.16
2022-09-26T22:21:43.292Z,99074.81
2022-09-26T22:24:44.917Z,99072.28
2022-09-26T22:27:46.475Z,99069.78
2022-09-26T22:30:49.427Z,99064.59
2022-09-26T22:33:51.170Z,99056.59
2022-09-26T22:36:52.935Z,99059.28
2022-09-26T22:39:54.542Z,99050.53
2022-09-26T22:42:56.096Z,99051.66
2022-09-26T22:46:08.295Z,99044.81
2022-09-26T22:49:09.968Z,99044.13
2022-09-26T22:52:11.607Z,99042.63
2022-09-26T22:55:13.596Z,99035.91
2022-09-26T22:58:15.128Z,99033.38
2022-09-26T23:01:25.374Z,99029.34
2022-09-26T23:04:47.004Z,99031.34
2022-09-26T23:07:48.827Z,99026.16
2022-09-26T23:10:51.937Z,99020.97
2022-09-26T23:13:53.764Z,99022.81
2022-09-26T23:16:55.335Z,99013.16
2022-09-26T23:19:56.908Z,99019.47
2022-09-26T23:22:58.460Z,99014.28
2022-09-26T23:26:00.317Z,99020.59
2022-09-26T23:29:01.924Z,99014.44
2022-09-26T23:32:03.693Z,99006.44
2022-09-26T23:35:05.755Z,99008.41
2022-09-26T23:38:07.668Z,99005.75
2022-09-26T23:41:11.147Z,99011.94
2022-09-26T23:44:12.707Z,98999.44
2022-09-26T23:47:14.251Z,98999.44
2022-09-26T23:50:16.346Z,98996.78
2022-09-26T23:53:18.226Z,98995.94
2022-09-26T23:56:20.236Z,99002.94
2022-09-26T23:59:21.756Z,98996.78
